createdAt,value
2022-08-24T00:02:27.546Z,14.60
2022-08-24T00:07:30.219Z,11.88
2022-08-24T00:12:32.719Z,14.68
2022-08-24T00:17:35.207Z,14.85
2022-08-24T00:22:39.151Z,13.05
2022-08-24T00:27:42.674Z,16.48
2022-08-24T00:32:46.636Z,13.95
2022-08-24T00:37:51.309Z,15.23
2022-08-24T00:42:55.444Z,20.00
2022-08-24T00:48:05.743Z,22.00
2022-08-24T00:53:24.817Z,16.70
2022-08-24T00:58:35.269Z,13.73
2022-08-24T01:03:38.617Z,12.38
2022-08-24T01:08:44.603Z,13.85
2022-08-24T01:13:50.051Z,14.90
2022-08-24T01:18:52.896Z,16.05
2022-08-24T01:24:02.125Z,12.10
2022-08-24T01:29:11.114Z,13.77
2022-08-24T01:34:13.553Z,13.95
2022-08-24T01:39:22.453Z,14.00
2022-08-24T01:44:27.303Z,14.20
2022-08-24T01:49:32.957Z,12.15
2022-08-24T01:54:36.376Z,18.35
2022-08-24T01:59:38.918Z,16.23
2022-08-24T02:04:44.281Z,12.98
2022-08-24T02:09:48.582Z,15.70
2022-08-24T02:14:52.580Z,15.73
2022-08-24T02:19:55.249Z,14.55
2022-08-24T02:24:57.828Z,17.98
2022-08-24T02:30:00.330Z,18.17
2022-08-24T02:35:02.952Z,15.73
2022-08-24T02:40:07.877Z,14.85
2022-08-24T02:45:11.373Z,12.80
2022-08-24T02:50:16.243Z,14.68
2022-08-24T02:55:20.445Z,12.45
2022-08-24T03:00:28.030Z,18.35
2022-08-24T03:05:32.039Z,14.85
2022-08-24T03:10:35.654Z,17.65
2022-08-24T03:15:39.493Z,15.77
2022-08-24T03:20:42.030Z,19.45
2022-08-24T03:25:44.954Z,23.95
2022-08-24T03:30:48.575Z,30.92
2022-08-24T03:35:53.628Z,30.05
2022-08-24T03:40:58.021Z,31.80
2022-08-24T03:46:03.193Z,36.45
2022-08-24T03:51:06.088Z,37.25
2022-08-24T03:56:09.698Z,33.72
2022-08-24T04:01:13.253Z,36.83
2022-08-24T04:06:22.818Z,34.78
2022-08-24T04:11:27.451Z,31.70
2022-08-24T04:16:30.387Z,38.00
2022-08-24T04:21:46.095Z,31.50
2022-08-24T04:26:49.434Z,37.85
2022-08-24T04:31:53.661Z,31.33
2022-08-24T04:36:57.537Z,24.17
2022-08-24T04:42:03.629Z,22.42
2022-08-24T04:47:11.225Z,20.98
2022-08-24T04:52:14.938Z,19.85
2022-08-24T04:57:18.705Z,18.63
2022-08-24T05:02:23.070Z,18.10
2022-08-24T05:07:30.126Z,20.20
2022-08-24T05:12:33.144Z,16.40
2022-08-24T05:17:41.079Z,17.23
2022-08-24T05:22:45.257Z,17.20
2022-08-24T05:27:47.911Z,18.15
2022-08-24T05:32:50.966Z,18.38
2022-08-24T05:37:54.617Z,16.77
2022-08-24T05:43:00.024Z,17.85
2022-08-24T05:48:02.543Z,17.90
2022-08-24T05:53:25.474Z,16.00
2022-08-24T05:58:30.883Z,14.68
2022-08-24T06:03:38.196Z,14.05
2022-08-24T06:08:46.496Z,13.25
2022-08-24T06:13:56.229Z,12.38
2022-08-24T06:19:03.336Z,12.48
2022-08-24T06:24:07.563Z,13.43
2022-08-24T06:29:10.648Z,10.27
2022-08-24T06:34:20.065Z,11.30
2022-08-24T06:39:23.929Z,10.35
2022-08-24T06:44:31.274Z,9.23
2022-08-24T06:49:47.072Z,7.45
2022-08-24T06:54:50.286Z,5.97
2022-08-24T06:59:53.371Z,7.15
2022-08-24T07:04:55.990Z,5.78
2022-08-24T07:10:16.969Z,5.45
2022-08-24T07:15:27.068Z,5.72
2022-08-24T07:20:50.442Z,5.45
2022-08-24T07:26:20.906Z,5.65
2022-08-24T07:31:27.081Z,6.05
2022-08-24T07:36:44.723Z,4.55
2022-08-24T07:47:36.349Z,5.20
2022-08-24T07:52:33.688Z,4.60
2022-08-24T07:57:39.376Z,4.72
2022-08-24T08:02:46.628Z,4.40
2022-08-24T08:07:52.586Z,4.20
2022-08-24T08:12:56.272Z,4.75
2022-08-24T08:17:59.643Z,4.38
2022-08-24T08:23:25.529Z,4.63
2022-08-24T08:28:42.867Z,4.10
2022-08-24T08:33:45.844Z,6.10
2022-08-24T08:38:49.015Z,3.70
2022-08-24T08:44:01.369Z,3.63
2022-08-24T08:49:40.941Z,4.13
2022-08-24T08:54:58.921Z,3.53
2022-08-24T09:00:16.071Z,3.37
2022-08-24T09:05:31.466Z,3.97
2022-08-24T09:11:09.013Z,3.33
2022-08-24T09:16:17.517Z,3.97
2022-08-24T09:21:39.347Z,3.35
2022-08-24T09:27:00.697Z,4.40
2022-08-24T09:32:28.963Z,3.72
2022-08-24T09:37:45.863Z,3.30
2022-08-24T09:43:19.036Z,3.70
2022-08-24T09:48:46.501Z,3.42
2022-08-24T09:54:13.534Z,4.75
2022-08-24T09:59:31.288Z,3.15
2022-08-24T10:05:15.366Z,3.25
2022-08-24T10:10:23.872Z,3.42
2022-08-24T10:16:03.371Z,3.30
2022-08-24T10:21:37.286Z,3.30
2022-08-24T10:26:58.071Z,2.90
2022-08-24T10:32:19.618Z,3.70
2022-08-24T10:37:44.662Z,3.10
2022-08-24T10:43:33.070Z,3.10
2022-08-24T10:53:38.666Z,3.55
2022-08-24T10:59:12.127Z,4.28
2022-08-24T11:04:27.576Z,3.22
2022-08-24T11:09:51.773Z,3.83
2022-08-24T11:14:57.062Z,3.85
2022-08-24T11:19:59.840Z,3.88
2022-08-24T11:25:21.877Z,4.22
2022-08-24T11:30:28.304Z,3.50
2022-08-24T11:35:33.982Z,4.00
2022-08-24T11:40:40.978Z,3.70
2022-08-24T11:46:08.169Z,3.30
2022-08-24T11:51:21.045Z,3.10
2022-08-24T11:56:30.814Z,3.60
2022-08-24T12:01:44.533Z,3.80
2022-08-24T12:06:55.819Z,2.67
2022-08-24T12:12:13.981Z,3.30
2022-08-24T12:17:45.563Z,3.67
2022-08-24T12:22:49.458Z,2.88
2022-08-24T12:27:53.237Z,3.05
2022-08-24T12:32:59.990Z,2.20
2022-08-24T12:38:28.594Z,3.00
2022-08-24T12:43:40.906Z,3.22
2022-08-24T12:48:56.233Z,2.65
2022-08-24T12:54:13.796Z,2.40
2022-08-24T12:59:22.987Z,3.38
2022-08-24T13:04:36.246Z,4.80
2022-08-24T13:10:04.648Z,2.72
2022-08-24T13:15:31.920Z,3.40
2022-08-24T13:20:37.311Z,3.42
2022-08-24T13:25:52.221Z,2.35
2022-08-24T13:30:54.781Z,2.60
2022-08-24T13:36:05.475Z,2.85
2022-08-24T13:41:41.453Z,3.80
2022-08-24T13:47:08.280Z,2.63
2022-08-24T13:52:22.825Z,3.03
2022-08-24T13:57:28.245Z,3.10
2022-08-24T14:02:49.208Z,4.20
2022-08-24T14:08:13.231Z,3.42
2022-08-24T14:13:37.166Z,4.35
2022-08-24T14:18:53.885Z,3.90
2022-08-24T14:24:09.879Z,3.47
2022-08-24T14:29:18.318Z,4.07
2022-08-24T14:35:00.787Z,4.65
2022-08-24T14:40:27.374Z,5.72
2022-08-24T14:45:54.963Z,3.90
2022-08-24T14:51:09.182Z,3.80
2022-08-24T14:56:37.569Z,3.83
2022-08-24T15:01:43.658Z,4.38
2022-08-24T15:06:53.983Z,4.40
2022-08-24T15:12:33.465Z,4.35
2022-08-24T15:18:00.019Z,3.38
2022-08-24T15:23:11.981Z,4.70
2022-08-24T15:28:24.956Z,4.63
2022-08-24T15:33:29.033Z,4.07
2022-08-24T15:38:31.607Z,4.82
2022-08-24T15:43:41.550Z,4.35
2022-08-24T15:48:48.245Z,4.43
2022-08-24T15:53:51.163Z,4.15
2022-08-24T15:58:53.735Z,4.60
2022-08-24T16:03:59.974Z,4.03
2022-08-24T16:09:19.790Z,4.95
2022-08-24T16:14:29.651Z,4.63
2022-08-24T16:19:34.998Z,4.78
2022-08-24T16:24:40.118Z,5.22
2022-08-24T16:29:42.912Z,4.10
2022-08-24T16:34:54.813Z,4.80
2022-08-24T16:39:57.202Z,5.30
2022-08-24T16:45:00.012Z,4.40
2022-08-24T16:50:03.356Z,4.22
2022-08-24T16:55:06.704Z,4.53
2022-08-24T17:00:17.088Z,3.50
2022-08-24T17:05:19.984Z,3.72
2022-08-24T17:10:24.284Z,3.90
2022-08-24T17:15:26.744Z,4.82
2022-08-24T17:20:29.933Z,4.45
2022-08-24T17:25:32.585Z,4.95
2022-08-24T17:30:36.337Z,4.32
2022-08-24T17:35:40.540Z,3.95
2022-08-24T17:40:43.023Z,4.22
2022-08-24T17:45:45.553Z,4.13
2022-08-24T17:50:47.910Z,4.15
2022-08-24T17:55:50.586Z,4.22
2022-08-24T18:00:53.533Z,3.95
2022-08-24T18:05:56.067Z,5.00
2022-08-24T18:10:59.033Z,6.07
2022-08-24T18:16:01.725Z,4.55
2022-08-24T18:21:04.209Z,4.13
2022-08-24T18:26:06.867Z,4.45
2022-08-24T18:31:10.591Z,4.80
2022-08-24T18:36:13.153Z,4.93
2022-08-24T18:41:15.958Z,5.80
2022-08-24T18:46:18.377Z,4.65
2022-08-24T18:51:21.321Z,4.38
2022-08-24T18:56:24.630Z,5.75
2022-08-24T19:01:28.178Z,4.60
2022-08-24T19:06:30.594Z,4.88
2022-08-24T19:11:33.092Z,5.22
2022-08-24T19:16:35.878Z,4.60
2022-08-24T19:21:39.168Z,4.70
2022-08-24T19:26:43.440Z,6.18
2022-08-24T19:31:46.193Z,6.25
2022-08-24T19:36:48.765Z,6.10
2022-08-24T19:41:51.930Z,5.50
2022-08-24T19:46:56.083Z,6.65
2022-08-24T19:51:59.664Z,6.30
2022-08-24T19:57:02.407Z,6.35
2022-08-24T20:02:05.414Z,5.90
2022-08-24T20:07:09.219Z,8.05
2022-08-24T20:12:12.394Z,7.40
2022-08-24T20:17:15.034Z,8.00
2022-08-24T20:22:18.616Z,7.63
2022-08-24T20:27:24.436Z,8.60
2022-08-24T20:32:29.520Z,7.72
2022-08-24T20:37:33.257Z,8.45
2022-08-24T20:42:35.926Z,8.27
2022-08-24T20:47:50.302Z,10.15
2022-08-24T20:52:54.123Z,8.20
2022-08-24T20:58:00.848Z,10.73
2022-08-24T21:03:03.639Z,9.30
2022-08-24T21:08:06.295Z,9.23
2022-08-24T21:13:08.714Z,9.13
2022-08-24T21:18:11.271Z,9.20
2022-08-24T21:23:13.887Z,10.02
2022-08-24T21:28:16.811Z,9.70
2022-08-24T21:33:37.836Z,10.60
2022-08-24T21:38:40.328Z,9.88
2022-08-24T21:43:47.785Z,8.82
2022-08-24T21:48:50.292Z,10.30
2022-08-24T21:53:57.461Z,9.77
2022-08-24T21:59:03.205Z,9.70
2022-08-24T22:04:06.335Z,8.07
2022-08-24T22:09:08.850Z,8.85
2022-08-24T22:14:11.487Z,8.85
2022-08-24T22:19:14.057Z,8.38
2022-08-24T22:24:17.042Z,8.93
2022-08-24T22:29:19.486Z,7.68
2022-08-24T22:34:26.341Z,7.47
2022-08-24T22:39:29.348Z,7.25
2022-08-24T22:44:33.008Z,7.22
2022-08-24T22:49:40.770Z,7.60
2022-08-24T22:54:43.723Z,8.15
2022-08-24T22:59:46.358Z,8.00
2022-08-24T23:04:51.111Z,7.78
2022-08-24T23:09:53.702Z,7.20
2022-08-24T23:14:56.525Z,6.63
2022-08-24T23:20:04.777Z,7.13
2022-08-24T23:25:09.819Z,9.43
2022-08-24T23:30:13.875Z,8.73
2022-08-24T23:35:16.219Z,10.85
2022-08-24T23:40:20.263Z,10.35
2022-08-24T23:45:28.569Z,10.60
2022-08-24T23:50:34.382Z,11.88
2022-08-24T23:55:36.889Z,12.02
